createdAt,value
2019-03-27T00:00:40.959Z,0.00
2019-03-27T00:01:40.972Z,0.00
2019-03-27T00:02:40.935Z,0.00
2019-03-27T00:03:40.927Z,0.00
2019-03-27T00:04:40.913Z,0.00
2019-03-27T00:05:40.904Z,0.00
2019-03-27T00:06:40.917Z,0.00
2019-03-27T00:07:40.881Z,0.00
2019-03-27T00:08:40.870Z,0.00
2019-03-27T00:09:40.859Z,0.00
2019-03-27T00:10:40.848Z,0.00
2019-03-27T00:11:40.874Z,0.00
2019-03-27T00:12:40.827Z,0.00
2019-03-27T00:13:40.816Z,0.00
2019-03-27T00:14:40.805Z,0.00
2019-03-27T00:15:40.798Z,0.00
2019-03-27T00:16:40.787Z,0.00
2019-03-27T00:17:40.797Z,0.00
2019-03-27T00:18:40.766Z,0.00
2019-03-27T00:19:40.750Z,0.00
2019-03-27T00:20:40.741Z,0.00
2019-03-27T00:21:40.757Z,0.00
2019-03-27T00:22:40.744Z,0.00
2019-03-27T00:23:40.714Z,0.00
2019-03-27T00:24:40.697Z,0.00
2019-03-27T00:25:40.688Z,0.00
2019-03-27T00:26:40.675Z,0.00
2019-03-27T00:27:40.701Z,0.00
2019-03-27T00:28:40.653Z,0.00
2019-03-27T00:29:40.642Z,0.00
2019-03-27T00:30:40.632Z,0.00
2019-03-27T00:31:40.621Z,0.00
2019-03-27T00:32:40.609Z,0.00
2019-03-27T00:33:40.636Z,0.00
2019-03-27T00:34:40.587Z,0.00
2019-03-27T00:35:40.583Z,0.00
2019-03-27T00:36:40.569Z,0.00
2019-03-27T00:37:40.554Z,0.00
2019-03-27T00:38:40.543Z,0.00
2019-03-27T00:39:40.559Z,0.00
2019-03-27T00:40:40.521Z,0.00
2019-03-27T00:41:40.512Z,0.00
2019-03-27T00:42:40.500Z,0.00
2019-03-27T00:43:40.487Z,0.00
2019-03-27T00:44:40.504Z,0.00
2019-03-27T00:45:40.466Z,0.00
2019-03-27T00:46:40.458Z,0.00
2019-03-27T00:47:40.449Z,0.00
2019-03-27T00:48:40.436Z,0.00
2019-03-27T00:49:40.461Z,0.00
2019-03-27T00:50:40.414Z,0.00
2019-03-27T00:51:40.401Z,0.00
2019-03-27T00:52:40.391Z,0.00
2019-03-27T00:53:40.381Z,0.00
2019-03-27T00:54:40.410Z,0.00
2019-03-27T00:55:40.385Z,0.00
2019-03-27T00:56:40.349Z,0.00
2019-03-27T00:57:40.336Z,0.00
2019-03-27T00:58:40.326Z,0.00
2019-03-27T00:59:40.315Z,0.00
2019-03-27T01:00:40.331Z,0.00
2019-03-27T01:01:40.294Z,0.00
2019-03-27T01:02:40.284Z,0.00
2019-03-27T01:03:40.272Z,0.00
2019-03-27T01:04:40.262Z,0.00
2019-03-27T01:05:40.276Z,0.00
2019-03-27T01:06:40.239Z,0.00
2019-03-27T01:07:40.231Z,0.00
2019-03-27T01:08:40.216Z,0.00
2019-03-27T01:09:40.206Z,0.00
2019-03-27T01:10:40.220Z,0.00
2019-03-27T01:11:40.183Z,0.00
2019-03-27T01:12:40.174Z,0.00
2019-03-27T01:13:40.250Z,0.00
2019-03-27T01:14:40.152Z,0.00
2019-03-27T01:15:40.433Z,0.00
2019-03-27T01:16:40.144Z,0.00
2019-03-27T01:17:40.122Z,0.00
2019-03-27T01:18:40.112Z,0.00
2019-03-27T01:19:40.098Z,0.00
2019-03-27T01:20:40.084Z,0.00
2019-03-27T01:21:40.100Z,0.00
2019-03-27T01:22:40.064Z,0.00
2019-03-27T01:23:40.057Z,0.00
2019-03-27T01:24:40.042Z,0.00
2019-03-27T01:25:40.033Z,0.00
2019-03-27T01:26:40.064Z,0.00
2019-03-27T01:27:40.010Z,0.00
2019-03-27T01:28:39.998Z,0.00
2019-03-27T01:29:39.991Z,0.00
2019-03-27T01:30:39.977Z,0.00
2019-03-27T01:31:39.966Z,0.00
2019-03-27T01:32:39.980Z,0.00
2019-03-27T01:33:39.945Z,0.00
2019-03-27T01:34:39.934Z,0.00
2019-03-27T01:35:39.925Z,0.00
2019-03-27T01:36:39.911Z,0.00
2019-03-27T01:37:39.939Z,0.00
2019-03-27T01:38:39.888Z,0.00
2019-03-27T01:39:39.881Z,0.00
2019-03-27T01:40:39.868Z,0.00
2019-03-27T01:41:39.859Z,0.00
2019-03-27T01:42:39.846Z,0.00
2019-03-27T01:43:39.873Z,0.00
2019-03-27T01:44:39.826Z,0.00
2019-03-27T01:45:52.161Z,0.00
2019-03-27T01:46:40.801Z,0.00
2019-03-27T01:47:39.799Z,0.00
2019-03-27T01:48:39.781Z,0.00
2019-03-27T01:49:39.795Z,0.00
2019-03-27T01:50:39.760Z,0.00
2019-03-27T01:51:39.750Z,0.00
2019-03-27T01:52:39.737Z,0.00
2019-03-27T01:53:39.727Z,0.00
2019-03-27T01:54:39.741Z,0.00
2019-03-27T01:55:39.707Z,0.00
2019-03-27T01:56:39.694Z,0.00
2019-03-27T01:57:39.686Z,0.00
2019-03-27T01:58:39.672Z,0.00
2019-03-27T01:59:39.698Z,0.00
2019-03-27T02:00:39.650Z,0.00
2019-03-27T02:01:39.644Z,0.00
2019-03-27T02:02:39.700Z,0.00
2019-03-27T02:03:39.619Z,0.00
2019-03-27T02:04:39.605Z,0.00
2019-03-27T02:05:39.619Z,0.00
2019-03-27T02:06:39.585Z,0.00
2019-03-27T02:07:39.591Z,0.00
2019-03-27T02:08:39.560Z,0.00
2019-03-27T02:09:39.556Z,0.00
2019-03-27T02:10:39.568Z,0.00
2019-03-27T02:11:39.530Z,0.00
2019-03-27T02:12:39.522Z,0.00
2019-03-27T02:13:39.508Z,0.00
2019-03-27T02:14:39.535Z,0.00
2019-03-27T02:15:39.526Z,0.00
2019-03-27T02:16:39.474Z,0.00
2019-03-27T02:17:39.464Z,0.00
2019-03-27T02:18:39.452Z,0.00
2019-03-27T02:19:39.442Z,0.00
2019-03-27T02:20:39.431Z,0.00
2019-03-27T02:21:39.502Z,0.00
2019-03-27T02:22:39.410Z,0.00
2019-03-27T02:23:39.399Z,0.00
2019-03-27T02:24:39.388Z,0.00
2019-03-27T02:25:39.376Z,0.00
2019-03-27T02:26:39.397Z,0.00
2019-03-27T02:27:39.354Z,0.00
2019-03-27T02:28:39.344Z,0.00
2019-03-27T02:29:39.334Z,0.00
2019-03-27T02:30:39.432Z,0.00
2019-03-27T02:31:39.349Z,0.00
2019-03-27T02:32:39.302Z,0.00
2019-03-27T02:33:39.290Z,0.00
2019-03-27T02:34:39.279Z,0.00
2019-03-27T02:35:39.282Z,0.00
2019-03-27T02:36:39.258Z,0.00
2019-03-27T02:37:39.285Z,0.00
2019-03-27T02:38:39.236Z,0.00
2019-03-27T02:39:39.225Z,0.00
2019-03-27T02:40:39.234Z,0.00
2019-03-27T02:41:39.206Z,0.00
2019-03-27T02:42:39.194Z,0.00
2019-03-27T02:43:39.207Z,0.00
2019-03-27T02:44:39.178Z,0.00
2019-03-27T02:45:39.159Z,0.00
2019-03-27T02:46:39.153Z,0.00
2019-03-27T02:47:39.147Z,0.00
2019-03-27T02:48:39.165Z,0.00
2019-03-27T02:49:39.126Z,0.00
2019-03-27T02:50:39.104Z,0.00
2019-03-27T02:51:39.095Z,0.00
2019-03-27T02:52:39.083Z,0.00
2019-03-27T02:53:39.076Z,0.00
2019-03-27T02:54:39.088Z,0.00
2019-03-27T02:55:39.051Z,0.00
2019-03-27T02:56:39.039Z,0.00
2019-03-27T02:57:39.032Z,0.00
2019-03-27T02:58:39.020Z,0.00
2019-03-27T02:59:39.043Z,0.00
2019-03-27T03:00:38.995Z,0.00
2019-03-27T03:01:38.986Z,0.00
2019-03-27T03:02:39.019Z,0.00
2019-03-27T03:03:38.967Z,0.00
2019-03-27T03:04:38.953Z,0.00
2019-03-27T03:05:38.963Z,0.00
2019-03-27T03:06:38.935Z,0.00
2019-03-27T03:07:38.919Z,0.00
2019-03-27T03:08:38.916Z,0.00
2019-03-27T03:09:38.902Z,0.00
2019-03-27T03:10:38.925Z,0.00
2019-03-27T03:11:38.877Z,0.00
2019-03-27T03:12:38.865Z,0.00
2019-03-27T03:13:38.854Z,0.00
2019-03-27T03:14:38.844Z,0.00
2019-03-27T03:15:38.836Z,0.00
2019-03-27T03:16:42.587Z,0.00
2019-03-27T03:17:38.829Z,0.00
2019-03-27T03:18:38.799Z,0.00
2019-03-27T03:19:38.788Z,0.00
2019-03-27T03:20:38.777Z,0.00
2019-03-27T03:21:38.805Z,0.00
2019-03-27T03:22:38.758Z,0.00
2019-03-27T03:23:38.745Z,0.00
2019-03-27T03:24:38.734Z,0.00
2019-03-27T03:25:38.724Z,0.00
2019-03-27T03:26:38.721Z,0.00
2019-03-27T03:27:38.737Z,0.00
2019-03-27T03:28:38.702Z,0.00
2019-03-27T03:29:38.801Z,0.00
2019-03-27T03:30:38.691Z,0.00
2019-03-27T03:31:38.664Z,0.00
2019-03-27T03:32:38.671Z,0.00
2019-03-27T03:33:38.661Z,0.00
2019-03-27T03:34:38.626Z,0.00
2019-03-27T03:35:38.612Z,0.00
2019-03-27T03:36:38.610Z,0.00
2019-03-27T03:37:38.602Z,0.00
2019-03-27T03:38:38.618Z,0.00
2019-03-27T03:39:38.570Z,0.00
2019-03-27T03:40:38.558Z,0.00
2019-03-27T03:41:38.549Z,0.00
2019-03-27T03:42:38.539Z,0.00
2019-03-27T03:43:38.527Z,0.00
2019-03-27T03:44:38.552Z,0.00
2019-03-27T03:45:38.503Z,0.00
2019-03-27T03:46:38.496Z,0.00
2019-03-27T03:47:38.487Z,0.00
2019-03-27T03:48:38.480Z,0.00
2019-03-27T03:49:38.463Z,0.00
2019-03-27T03:50:38.492Z,0.00
2019-03-27T03:51:38.439Z,0.00
2019-03-27T03:52:38.442Z,0.00
2019-03-27T03:53:38.418Z,0.00
2019-03-27T03:54:38.413Z,0.00
2019-03-27T03:55:38.398Z,0.00
2019-03-27T03:56:38.416Z,0.00
2019-03-27T03:57:38.375Z,0.00
2019-03-27T03:58:38.362Z,0.00
2019-03-27T03:59:38.352Z,0.00
2019-03-27T04:00:38.341Z,0.00
2019-03-27T04:01:38.354Z,0.00
2019-03-27T04:02:38.321Z,0.00
2019-03-27T04:03:38.312Z,0.00
2019-03-27T04:04:38.299Z,0.00
2019-03-27T04:05:38.289Z,0.00
2019-03-27T04:06:38.312Z,0.00
2019-03-27T04:07:38.269Z,0.00
2019-03-27T04:08:38.260Z,0.00
2019-03-27T04:09:38.245Z,0.00
2019-03-27T04:10:38.232Z,0.00
2019-03-27T04:11:38.223Z,0.00
2019-03-27T04:12:38.235Z,0.00
2019-03-27T04:13:38.205Z,0.00
2019-03-27T04:14:38.190Z,0.00
2019-03-27T04:15:38.178Z,0.00
2019-03-27T04:16:38.174Z,0.00
2019-03-27T04:17:38.269Z,0.00
2019-03-27T04:18:38.151Z,0.00
2019-03-27T04:19:38.153Z,0.00
2019-03-27T04:20:38.125Z,0.00
2019-03-27T04:21:38.116Z,0.00
2019-03-27T04:22:38.122Z,0.00
2019-03-27T04:23:38.116Z,0.00
2019-03-27T04:24:38.210Z,0.00
2019-03-27T04:26:06.901Z,0.00
2019-03-27T04:26:39.058Z,0.00
2019-03-27T04:27:38.046Z,0.00
2019-03-27T04:28:38.063Z,0.00
2019-03-27T04:29:38.032Z,0.00
2019-03-27T04:30:38.017Z,0.00
2019-03-27T04:31:38.010Z,4.00
2019-03-27T04:32:38.032Z,4.00
2019-03-27T04:33:38.011Z,0.00
2019-03-27T04:34:37.974Z,0.00
2019-03-27T04:35:37.964Z,4.00
2019-03-27T04:36:37.950Z,4.00
2019-03-27T04:37:37.940Z,0.00
2019-03-27T04:38:37.969Z,4.00
2019-03-27T04:39:37.918Z,4.00
2019-03-27T04:40:37.914Z,4.00
2019-03-27T04:41:37.898Z,4.00
2019-03-27T04:42:37.887Z,4.00
2019-03-27T04:43:37.876Z,8.00
2019-03-27T04:44:37.895Z,8.00
2019-03-27T04:45:37.857Z,8.00
2019-03-27T04:46:37.845Z,8.00
2019-03-27T04:47:37.832Z,8.00
2019-03-27T04:48:37.828Z,12.00
2019-03-27T04:49:37.849Z,12.00
2019-03-27T04:50:37.800Z,12.00
2019-03-27T04:51:37.789Z,12.00
2019-03-27T04:52:37.784Z,16.00
2019-03-27T04:53:37.768Z,16.00
2019-03-27T04:54:37.759Z,16.00
2019-03-27T04:55:37.784Z,20.00
2019-03-27T04:56:37.737Z,20.00
2019-03-27T04:57:37.728Z,24.00
2019-03-27T04:58:37.716Z,24.00
2019-03-27T04:59:37.704Z,24.00
2019-03-27T05:00:37.694Z,24.00
2019-03-27T05:01:37.720Z,32.00
2019-03-27T05:02:37.672Z,36.00
2019-03-27T05:03:37.662Z,36.00
2019-03-27T05:04:37.651Z,32.00
2019-03-27T05:05:37.643Z,32.00
2019-03-27T05:06:37.630Z,32.00
2019-03-27T05:07:37.655Z,32.00
2019-03-27T05:08:37.608Z,36.00
2019-03-27T05:09:37.599Z,32.00
2019-03-27T05:10:37.588Z,36.00
2019-03-27T05:11:37.579Z,36.00
2019-03-27T05:12:38.846Z,36.00
2019-03-27T05:13:37.592Z,44.00
2019-03-27T05:14:37.545Z,52.00
2019-03-27T05:15:37.532Z,52.00
2019-03-27T05:16:37.523Z,44.00
2019-03-27T05:17:45.933Z,44.00
2019-03-27T05:18:38.544Z,48.00
2019-03-27T05:19:37.491Z,56.00
2019-03-27T05:20:37.480Z,64.00
2019-03-27T05:21:37.469Z,64.00
2019-03-27T05:22:37.458Z,68.00
2019-03-27T05:23:37.448Z,72.00
2019-03-27T05:24:37.463Z,76.00
2019-03-27T05:25:37.428Z,88.00
2019-03-27T05:26:37.418Z,104.00
2019-03-27T05:27:37.410Z,108.00
2019-03-27T05:28:37.395Z,116.00
2019-03-27T05:29:37.420Z,128.00
2019-03-27T05:30:37.372Z,124.00
2019-03-27T05:31:37.360Z,116.00
2019-03-27T05:32:37.352Z,124.00
2019-03-27T05:33:37.342Z,136.00
2019-03-27T05:34:37.330Z,136.00
2019-03-27T05:35:37.346Z,136.00
2019-03-27T05:36:37.311Z,132.00
2019-03-27T05:37:37.297Z,116.00
2019-03-27T05:38:37.288Z,120.00
2019-03-27T05:39:37.276Z,100.00
2019-03-27T05:40:37.290Z,96.00
2019-03-27T05:41:37.255Z,100.00
2019-03-27T05:42:37.244Z,104.00
2019-03-27T05:43:37.232Z,108.00
2019-03-27T05:44:37.224Z,116.00
2019-03-27T05:45:37.237Z,116.00
2019-03-27T05:46:37.201Z,120.00
2019-03-27T05:47:37.190Z,124.00
2019-03-27T05:48:37.181Z,124.00
2019-03-27T05:49:37.170Z,120.00
2019-03-27T05:50:37.184Z,120.00
2019-03-27T05:51:37.149Z,120.00
2019-03-27T05:52:37.136Z,120.00
2019-03-27T05:53:37.128Z,128.00
2019-03-27T05:54:37.115Z,120.00
2019-03-27T05:55:37.147Z,132.00
2019-03-27T05:56:37.099Z,140.00
2019-03-27T05:57:37.084Z,144.00
2019-03-27T05:58:37.072Z,148.00
2019-03-27T05:59:37.062Z,136.00
2019-03-27T06:00:37.053Z,152.00
2019-03-27T06:01:37.078Z,144.00
2019-03-27T06:02:37.030Z,148.00
2019-03-27T06:03:37.019Z,160.00
2019-03-27T06:04:37.010Z,148.00
2019-03-27T06:05:36.998Z,148.00
2019-03-27T06:06:36.988Z,152.00
2019-03-27T06:07:37.000Z,152.00
2019-03-27T06:08:36.966Z,152.00
2019-03-27T06:09:36.955Z,164.00
2019-03-27T06:10:36.944Z,176.00
2019-03-27T06:11:36.933Z,192.00
2019-03-27T06:12:36.948Z,232.00
2019-03-27T06:13:36.920Z,280.00
2019-03-27T06:14:36.902Z,304.00
2019-03-27T06:15:36.890Z,316.00
2019-03-27T06:16:36.881Z,392.00
2019-03-27T06:17:36.894Z,424.00
2019-03-27T06:18:36.858Z,380.00
2019-03-27T06:19:36.847Z,368.00
2019-03-27T06:20:36.837Z,388.00
2019-03-27T06:21:36.825Z,376.00
2019-03-27T06:22:36.839Z,424.00
2019-03-27T06:23:36.804Z,428.00
2019-03-27T06:24:36.793Z,412.00
2019-03-27T06:25:36.784Z,416.00
2019-03-27T06:26:36.776Z,380.00
2019-03-27T06:27:36.798Z,376.00
2019-03-27T06:28:36.750Z,368.00
2019-03-27T06:29:36.741Z,456.00
2019-03-27T06:30:36.732Z,556.00
2019-03-27T06:31:36.719Z,564.00
2019-03-27T06:32:36.706Z,616.00
2019-03-27T06:33:36.730Z,732.00
2019-03-27T06:34:36.684Z,700.00
2019-03-27T06:35:36.677Z,656.00
2019-03-27T06:36:36.662Z,660.00
2019-03-27T06:37:36.651Z,640.00
2019-03-27T06:38:36.639Z,744.00
2019-03-27T06:39:36.669Z,776.00
2019-03-27T06:40:39.601Z,808.00
2019-03-27T06:41:36.610Z,900.00
2019-03-27T06:42:36.596Z,992.00
2019-03-27T06:43:36.586Z,972.00
2019-03-27T06:44:36.575Z,964.00
2019-03-27T06:45:36.588Z,980.00
2019-03-27T06:46:36.553Z,1020.00
2019-03-27T06:47:36.541Z,1052.00
2019-03-27T06:48:36.530Z,1072.00
2019-03-27T06:49:36.518Z,1100.00
2019-03-27T06:50:36.533Z,1180.00
2019-03-27T06:51:40.292Z,1160.00
2019-03-27T06:52:36.487Z,1108.00
2019-03-27T06:53:36.473Z,1136.00
2019-03-27T06:54:36.463Z,1220.00
2019-03-27T06:55:36.479Z,1396.00
2019-03-27T06:56:36.443Z,1536.00
2019-03-27T06:57:36.430Z,1592.00
2019-03-27T06:58:36.418Z,1540.00
2019-03-27T06:59:36.407Z,1592.00
2019-03-27T07:00:36.426Z,1580.00
2019-03-27T07:01:36.386Z,1520.00
2019-03-27T07:02:36.376Z,1512.00
2019-03-27T07:03:36.363Z,1528.00
2019-03-27T07:04:36.353Z,1460.00
2019-03-27T07:05:36.366Z,1392.00
2019-03-27T07:06:36.330Z,1332.00
2019-03-27T07:07:36.318Z,1252.00
2019-03-27T07:08:36.305Z,1396.00
2019-03-27T07:09:36.295Z,1456.00
2019-03-27T07:10:36.311Z,1476.00
2019-03-27T07:11:36.273Z,1384.00
2019-03-27T07:12:36.263Z,1312.00
2019-03-27T07:13:36.251Z,1412.00
2019-03-27T07:14:36.245Z,1444.00
2019-03-27T07:15:36.265Z,1408.00
2019-03-27T07:16:36.219Z,1460.00
2019-03-27T07:17:36.209Z,1556.00
2019-03-27T07:18:40.351Z,1584.00
2019-03-27T07:19:36.191Z,1512.00
2019-03-27T07:20:36.174Z,1456.00
2019-03-27T07:21:36.205Z,1540.00
2019-03-27T07:22:36.154Z,1640.00
2019-03-27T07:23:36.153Z,1652.00
2019-03-27T07:24:36.134Z,1672.00
2019-03-27T07:25:36.123Z,1768.00
2019-03-27T07:26:36.111Z,1832.00
2019-03-27T07:27:36.127Z,1872.00
2019-03-27T07:28:36.091Z,1864.00
2019-03-27T07:29:36.083Z,1808.00
2019-03-27T07:30:36.075Z,1752.00
2019-03-27T07:31:36.109Z,1668.00
2019-03-27T07:32:36.077Z,1652.00
2019-03-27T07:33:36.040Z,1684.00
2019-03-27T07:34:36.027Z,1724.00
2019-03-27T07:35:36.017Z,1744.00
2019-03-27T07:36:36.007Z,1772.00
2019-03-27T07:37:36.031Z,1816.00
2019-03-27T07:38:35.981Z,1852.00
2019-03-27T07:39:35.976Z,1872.00
2019-03-27T07:40:35.960Z,1868.00
2019-03-27T07:41:35.950Z,1912.00
2019-03-27T07:42:35.938Z,1924.00
2019-03-27T07:44:05.559Z,1924.00
2019-03-27T07:44:35.916Z,1940.00
2019-03-27T07:45:35.906Z,1932.00
2019-03-27T07:46:35.892Z,1904.00
2019-03-27T07:47:35.881Z,1888.00
2019-03-27T07:48:35.872Z,1876.00
2019-03-27T07:49:35.896Z,1852.00
2019-03-27T07:50:35.848Z,1876.00
2019-03-27T07:51:35.837Z,1904.00
2019-03-27T07:52:35.829Z,1916.00
2019-03-27T07:53:35.817Z,1860.00
2019-03-27T07:54:35.803Z,1776.00
2019-03-27T07:55:35.831Z,1636.00
2019-03-27T07:56:35.784Z,1496.00
2019-03-27T07:57:35.769Z,1416.00
2019-03-27T07:58:35.758Z,1464.00
2019-03-27T07:59:35.750Z,1516.00
2019-03-27T08:00:35.760Z,1548.00
2019-03-27T08:01:35.725Z,1540.00
2019-03-27T08:02:35.713Z,1480.00
2019-03-27T08:03:35.702Z,1424.00
2019-03-27T08:04:35.693Z,1460.00
2019-03-27T08:05:35.706Z,1484.00
2019-03-27T08:06:35.670Z,1480.00
2019-03-27T08:07:35.657Z,1404.00
2019-03-27T08:08:35.648Z,1472.00
2019-03-27T08:09:35.635Z,1560.00
2019-03-27T08:10:35.651Z,1572.00
2019-03-27T08:11:35.733Z,1508.00
2019-03-27T08:12:35.602Z,1368.00
2019-03-27T08:13:35.591Z,1300.00
2019-03-27T08:14:35.580Z,1508.00
2019-03-27T08:15:35.605Z,1844.00
2019-03-27T08:16:35.565Z,2080.00
2019-03-27T08:17:35.549Z,2220.00
2019-03-27T08:18:35.534Z,2340.00
2019-03-27T08:19:35.523Z,2316.00
2019-03-27T08:20:35.513Z,2188.00
2019-03-27T08:21:35.561Z,2012.00
2019-03-27T08:22:35.490Z,1908.00
2019-03-27T08:23:35.478Z,1860.00
2019-03-27T08:24:35.468Z,1700.00
2019-03-27T08:25:35.458Z,1512.00
2019-03-27T08:26:35.447Z,1512.00
2019-03-27T08:27:35.460Z,1460.00
2019-03-27T08:28:35.505Z,1364.00
2019-03-27T08:29:35.414Z,1408.00
2019-03-27T08:30:35.401Z,1396.00
2019-03-27T08:31:35.396Z,1212.00
2019-03-27T08:32:37.524Z,1264.00
2019-03-27T08:33:35.369Z,1348.00
2019-03-27T08:34:35.356Z,1476.00
2019-03-27T08:35:35.349Z,1828.00
2019-03-27T08:36:35.340Z,1896.00
2019-03-27T08:37:35.327Z,1752.00
2019-03-27T08:38:35.400Z,1568.00
2019-03-27T08:39:35.301Z,1656.00
2019-03-27T08:40:35.292Z,1588.00
2019-03-27T08:41:35.287Z,1408.00
2019-03-27T08:42:35.269Z,1444.00
2019-03-27T08:43:35.286Z,1488.00
2019-03-27T08:44:35.249Z,1504.00
2019-03-27T08:45:35.235Z,1616.00
2019-03-27T08:46:35.223Z,1636.00
2019-03-27T08:47:35.212Z,1508.00
2019-03-27T08:48:35.230Z,1484.00
2019-03-27T08:49:35.189Z,1448.00
2019-03-27T08:50:35.178Z,1540.00
2019-03-27T08:51:35.168Z,1628.00
2019-03-27T08:52:35.155Z,1624.00
2019-03-27T08:53:35.185Z,1564.00
2019-03-27T08:54:35.132Z,1572.00
2019-03-27T08:55:35.122Z,1488.00
2019-03-27T08:56:35.118Z,1520.00
2019-03-27T08:57:35.099Z,1588.00
2019-03-27T08:58:35.088Z,1664.00
2019-03-27T08:59:35.117Z,1864.00
2019-03-27T09:00:35.071Z,2204.00
2019-03-27T09:01:35.057Z,2440.00
2019-03-27T09:02:35.044Z,2540.00
2019-03-27T09:03:35.031Z,3044.00
2019-03-27T09:04:35.023Z,3472.00
2019-03-27T09:05:35.036Z,3536.00
2019-03-27T09:06:35.006Z,3752.00
2019-03-27T09:07:34.989Z,3392.00
2019-03-27T09:08:34.982Z,2552.00
2019-03-27T09:09:34.971Z,1928.00
2019-03-27T09:10:34.982Z,1680.00
2019-03-27T09:11:34.946Z,1780.00
2019-03-27T09:12:34.939Z,1940.00
2019-03-27T09:13:34.929Z,1808.00
2019-03-27T09:14:34.915Z,1796.00
2019-03-27T09:15:34.942Z,2068.00
2019-03-27T09:16:34.893Z,2220.00
2019-03-27T09:17:34.881Z,2352.00
2019-03-27T09:18:34.873Z,2616.00
2019-03-27T09:19:36.362Z,2976.00
2019-03-27T09:20:34.849Z,3144.00
2019-03-27T09:21:34.864Z,2988.00
2019-03-27T09:22:34.828Z,2840.00
2019-03-27T09:23:34.821Z,2920.00
2019-03-27T09:24:34.810Z,3292.00
2019-03-27T09:25:34.798Z,3684.00
2019-03-27T09:26:34.809Z,3868.00
2019-03-27T09:27:34.796Z,4008.00
2019-03-27T09:28:34.764Z,4064.00
2019-03-27T09:29:34.753Z,4148.00
2019-03-27T09:30:34.750Z,3892.00
2019-03-27T09:31:44.731Z,3760.00
2019-03-27T09:32:35.727Z,3504.00
2019-03-27T09:33:34.708Z,2796.00
2019-03-27T09:34:34.700Z,2140.00
2019-03-27T09:35:34.685Z,2032.00
2019-03-27T09:36:34.673Z,1888.00
2019-03-27T09:37:34.724Z,1712.00
2019-03-27T09:38:34.653Z,1804.00
2019-03-27T09:39:34.642Z,2004.00
2019-03-27T09:40:34.631Z,2168.00
2019-03-27T09:41:34.620Z,2392.00
2019-03-27T09:42:34.608Z,2860.00
2019-03-27T09:43:34.625Z,3196.00
2019-03-27T09:44:34.589Z,3108.00
2019-03-27T09:45:34.575Z,2740.00
2019-03-27T09:46:34.564Z,2356.00
2019-03-27T09:47:34.905Z,2508.00
2019-03-27T09:48:34.577Z,2880.00
2019-03-27T09:49:48.635Z,2812.00
2019-03-27T09:50:35.521Z,2588.00
2019-03-27T09:51:34.509Z,2264.00
2019-03-27T09:52:34.498Z,2184.00
2019-03-27T09:53:34.491Z,2192.00
2019-03-27T09:54:34.500Z,2088.00
2019-03-27T09:55:34.463Z,1768.00
2019-03-27T09:56:34.454Z,1552.00
2019-03-27T09:57:34.447Z,1424.00
2019-03-27T09:58:34.430Z,1360.00
2019-03-27T09:59:34.460Z,1424.00
2019-03-27T10:00:34.409Z,1716.00
2019-03-27T10:01:34.410Z,1824.00
2019-03-27T10:02:34.387Z,1640.00
2019-03-27T10:03:34.375Z,1528.00
2019-03-27T10:04:34.364Z,1472.00
2019-03-27T10:05:34.409Z,1348.00
2019-03-27T10:06:34.350Z,1472.00
2019-03-27T10:07:34.329Z,1540.00
2019-03-27T10:08:34.316Z,1556.00
2019-03-27T10:09:34.308Z,1960.00
2019-03-27T10:10:34.348Z,2088.00
2019-03-27T10:11:34.286Z,2188.00
2019-03-27T10:12:34.275Z,2168.00
2019-03-27T10:13:34.262Z,2168.00
2019-03-27T10:14:34.253Z,2152.00
2019-03-27T10:15:34.274Z,2228.00
2019-03-27T10:16:34.227Z,2484.00
2019-03-27T10:17:34.217Z,2868.00
2019-03-27T10:18:34.207Z,3256.00
2019-03-27T10:19:34.195Z,3256.00
2019-03-27T10:20:34.208Z,2900.00
2019-03-27T10:21:34.173Z,2644.00
2019-03-27T10:22:34.161Z,2396.00
2019-03-27T10:23:34.150Z,2108.00
2019-03-27T10:24:34.138Z,2412.00
2019-03-27T10:25:34.164Z,3048.00
2019-03-27T10:26:34.117Z,3532.00
2019-03-27T10:27:34.109Z,4016.00
2019-03-27T10:28:34.095Z,3596.00
2019-03-27T10:29:34.083Z,3220.00
2019-03-27T10:30:34.072Z,2932.00
2019-03-27T10:31:34.085Z,2816.00
2019-03-27T10:32:34.048Z,2560.00
2019-03-27T10:33:34.038Z,2352.00
2019-03-27T10:34:34.027Z,2580.00
2019-03-27T10:35:34.017Z,2608.00
2019-03-27T10:36:34.034Z,2444.00
2019-03-27T10:37:33.995Z,2396.00
2019-03-27T10:38:33.982Z,2276.00
2019-03-27T10:39:33.971Z,2268.00
2019-03-27T10:40:33.963Z,2444.00
2019-03-27T10:41:33.976Z,2508.00
2019-03-27T10:42:33.946Z,2376.00
2019-03-27T10:43:33.927Z,2644.00
2019-03-27T10:44:33.916Z,2728.00
2019-03-27T10:45:33.910Z,2276.00
2019-03-27T10:46:33.920Z,2008.00
2019-03-27T10:47:33.886Z,1884.00
2019-03-27T10:48:33.872Z,1856.00
2019-03-27T10:49:34.557Z,1800.00
2019-03-27T10:50:33.851Z,1776.00
2019-03-27T10:51:33.887Z,1828.00
2019-03-27T10:52:33.828Z,1836.00
2019-03-27T10:53:33.818Z,2128.00
2019-03-27T10:54:33.807Z,2612.00
2019-03-27T10:55:34.574Z,2732.00
2019-03-27T10:56:33.785Z,2548.00
2019-03-27T10:57:33.813Z,2664.00
2019-03-27T10:58:33.767Z,2476.00
2019-03-27T10:59:33.751Z,2088.00
2019-03-27T11:00:33.742Z,1764.00
2019-03-27T11:01:33.733Z,1584.00
2019-03-27T11:02:33.719Z,1620.00
2019-03-27T11:03:33.745Z,1860.00
2019-03-27T11:04:33.697Z,2084.00
2019-03-27T11:05:33.684Z,2252.00
2019-03-27T11:06:33.676Z,2140.00
2019-03-27T11:07:33.666Z,1956.00
2019-03-27T11:08:33.654Z,1852.00
2019-03-27T11:09:33.667Z,1852.00
2019-03-27T11:10:33.631Z,2000.00
2019-03-27T11:11:33.619Z,2056.00
2019-03-27T11:12:33.611Z,1960.00
2019-03-27T11:13:34.554Z,1860.00
2019-03-27T11:14:38.224Z,1868.00
2019-03-27T11:15:33.576Z,1964.00
2019-03-27T11:16:33.565Z,2068.00
2019-03-27T11:17:33.552Z,2364.00
2019-03-27T11:18:33.543Z,2712.00
2019-03-27T11:19:33.856Z,2788.00
2019-03-27T11:20:33.521Z,2320.00
2019-03-27T11:21:33.509Z,1688.00
2019-03-27T11:22:33.497Z,1380.00
2019-03-27T11:23:33.493Z,1244.00
2019-03-27T11:24:33.478Z,1168.00
2019-03-27T11:25:33.584Z,1136.00
2019-03-27T11:26:33.452Z,1148.00
2019-03-27T11:27:33.441Z,1344.00
2019-03-27T11:28:33.431Z,1692.00
2019-03-27T11:29:33.423Z,2032.00
2019-03-27T11:30:33.435Z,2448.00
2019-03-27T11:31:33.403Z,2648.00
2019-03-27T11:32:33.387Z,2544.00
2019-03-27T11:33:33.377Z,2384.00
2019-03-27T11:34:33.361Z,2160.00
2019-03-27T11:35:33.377Z,1964.00
2019-03-27T11:36:35.192Z,1724.00
2019-03-27T11:37:33.328Z,1556.00
2019-03-27T11:38:33.318Z,1940.00
2019-03-27T11:39:33.309Z,3104.00
2019-03-27T11:40:33.323Z,4356.00
2019-03-27T11:41:33.288Z,5256.00
2019-03-27T11:42:33.278Z,3432.00
2019-03-27T11:43:33.267Z,2640.00
2019-03-27T11:44:33.259Z,2236.00
2019-03-27T11:45:33.269Z,2528.00
2019-03-27T11:46:33.270Z,2672.00
2019-03-27T11:47:33.220Z,2576.00
2019-03-27T11:48:33.211Z,2508.00
2019-03-27T11:49:33.199Z,2176.00
2019-03-27T11:50:44.211Z,2156.00
2019-03-27T11:51:34.175Z,2048.00
2019-03-27T11:52:33.164Z,2048.00
2019-03-27T11:53:33.153Z,1928.00
2019-03-27T11:54:33.149Z,1984.00
2019-03-27T11:55:33.133Z,2136.00
2019-03-27T11:56:33.147Z,2380.00
2019-03-27T11:57:33.111Z,2132.00
2019-03-27T11:58:33.101Z,1936.00
2019-03-27T11:59:33.089Z,1880.00
2019-03-27T12:00:33.079Z,2040.00
2019-03-27T12:01:39.650Z,2148.00
2019-03-27T12:02:34.056Z,2316.00
2019-03-27T12:03:33.045Z,2496.00
2019-03-27T12:04:33.035Z,2564.00
2019-03-27T12:05:33.024Z,2712.00
2019-03-27T12:06:33.095Z,2672.00
2019-03-27T12:07:33.041Z,2116.00
2019-03-27T12:08:32.993Z,1568.00
2019-03-27T12:09:32.981Z,1248.00
2019-03-27T12:10:32.969Z,1132.00
2019-03-27T12:11:32.958Z,1172.00
2019-03-27T12:12:32.948Z,1496.00
2019-03-27T12:13:32.974Z,2172.00
2019-03-27T12:14:32.926Z,2956.00
2019-03-27T12:15:32.914Z,3388.00
2019-03-27T12:16:32.903Z,4784.00
2019-03-27T12:17:32.895Z,6980.00
2019-03-27T12:18:32.887Z,10320.00
2019-03-27T12:19:32.901Z,12100.00
2019-03-27T12:20:32.861Z,7580.00
2019-03-27T12:21:32.849Z,5716.00
2019-03-27T12:22:32.847Z,4928.00
2019-03-27T12:23:32.900Z,4424.00
2019-03-27T12:24:32.842Z,3652.00
2019-03-27T12:25:32.808Z,2996.00
2019-03-27T12:26:32.797Z,2596.00
2019-03-27T12:27:32.792Z,2488.00
2019-03-27T12:28:32.775Z,2224.00
2019-03-27T12:29:32.799Z,2252.00
2019-03-27T12:30:32.790Z,2120.00
2019-03-27T12:31:32.745Z,1760.00
2019-03-27T12:32:32.728Z,1828.00
2019-03-27T12:33:32.717Z,2036.00
2019-03-27T12:34:32.705Z,2316.00
2019-03-27T12:35:32.721Z,2740.00
2019-03-27T12:36:32.683Z,2972.00